Time;durP1;ratioP1;P1;durP2;ratioP2;P2;SDS_P1;SDS_P2;PMS_P1;PMS_P2;Temp;Humidity;BMP_temperature;BMP_pressure;BME280_temperature;BME280_humidity;BME280_pressure;Samples;Min_cycle;Max_cycle;Signal;HPM_P1;HPM_P2
2021/05/15 00:00:32;;;;;;;55.92;36.40;;;13.60;99.90;;;;;;5054578;28;20182;-89
2021/05/15 00:02:59;;;;;;;57.13;36.95;;;13.60;99.90;;;;;;5055481;28;20203;-89
2021/05/15 00:05:26;;;;;;;67.30;37.67;;;13.60;99.90;;;;;;5037905;28;20175;-89
2021/05/15 00:07:51;;;;;;;56.03;37.33;;;13.60;99.90;;;;;;5037770;28;20176;-90
2021/05/15 00:10:18;;;;;;;63.75;37.28;;;13.60;99.90;;;;;;5037929;28;20186;-90
2021/05/15 00:12:44;;;;;;;55.00;35.83;;;13.50;99.90;;;;;;5037967;28;20183;-90
2021/05/15 00:15:11;;;;;;;67.07;38.65;;;13.50;99.90;;;;;;5056332;28;20168;-90
2021/05/15 00:17:37;;;;;;;67.07;39.72;;;13.50;99.90;;;;;;5075436;28;20169;-89
2021/05/15 00:20:12;;;;;;;62.17;38.53;;;13.60;99.90;;;;;;5056174;28;20175;-89
2021/05/15 00:22:39;;;;;;;66.15;38.33;;;13.60;99.90;;;;;;5055127;28;20195;-90
2021/05/15 00:25:07;;;;;;;66.80;38.28;;;13.60;99.90;;;;;;5055405;28;20238;-90
2021/05/15 00:27:32;;;;;;;63.25;39.75;;;13.70;99.90;;;;;;5070585;28;20179;-90
2021/05/15 00:29:58;;;;;;;59.72;38.33;;;13.60;99.90;;;;;;5056908;28;20187;-90
2021/05/15 00:32:24;;;;;;;61.33;37.17;;;13.70;99.90;;;;;;5073700;28;20170;-90
2021/05/15 00:34:51;;;;;;;58.88;37.08;;;13.80;99.90;;;;;;5058308;28;20171;-90
2021/05/15 00:37:17;;;;;;;61.97;38.45;;;13.70;99.90;;;;;;5058888;28;20230;-89
2021/05/15 00:39:42;;;;;;;59.53;36.75;;;13.60;99.90;;;;;;5060067;28;20662;-90
2021/05/15 00:42:08;;;;;;;63.50;39.60;;;13.50;99.90;;;;;;5058888;28;20191;-90
2021/05/15 00:44:44;;;;;;;61.38;38.42;;;13.60;99.90;;;;;;5065961;28;20543;-90
2021/05/15 00:47:18;;;;;;;58.58;37.03;;;13.60;99.90;;;;;;5077006;28;20174;-90
2021/05/15 00:49:44;;;;;;;64.47;38.22;;;13.70;99.90;;;;;;5072214;28;20174;-89
2021/05/15 00:52:11;;;;;;;60.00;37.08;;;13.60;99.90;;;;;;5060917;28;20168;-89
2021/05/15 00:54:39;;;;;;;66.97;38.75;;;13.60;99.90;;;;;;5061142;28;20163;-89
2021/05/15 00:57:07;;;;;;;62.72;36.33;;;13.60;99.90;;;;;;5060896;28;20183;-89
2021/05/15 00:59:33;;;;;;;63.83;37.28;;;13.60;99.90;;;;;;5060147;28;20171;-89
2021/05/15 01:02:00;;;;;;;62.50;36.28;;;13.60;99.90;;;;;;5059211;28;20178;-89
2021/05/15 01:04:25;;;;;;;57.58;35.78;;;13.60;99.90;;;;;;5059854;28;20218;-89
2021/05/15 01:06:52;;;;;;;69.53;36.80;;;13.50;99.90;;;;;;5059906;28;20517;-89
2021/05/15 01:09:18;;;;;;;58.28;35.30;;;13.50;99.90;;;;;;5059839;28;20245;-89
2021/05/15 01:11:44;;;;;;;55.38;35.80;;;13.50;99.90;;;;;;5060706;28;20172;-89
2021/05/15 01:14:10;;;;;;;57.67;35.35;;;13.50;99.90;;;;;;5042036;28;20647;-89
2021/05/15 01:16:36;;;;;;;56.88;35.47;;;13.40;99.90;;;;;;5061422;28;20697;-90
2021/05/15 01:19:03;;;;;;;65.47;36.78;;;13.30;99.90;;;;;;5059227;28;20167;-89
2021/05/15 01:21:29;;;;;;;59.25;35.10;;;13.30;99.90;;;;;;5044009;28;20205;-89
2021/05/15 01:23:55;;;;;;;53.22;34.38;;;13.30;99.90;;;;;;5062672;28;20206;-90
2021/05/15 01:26:24;;;;;;;55.35;33.78;;;13.30;99.90;;;;;;5062867;28;20164;-90
2021/05/15 01:28:56;;;;;;;53.80;32.97;;;13.40;99.90;;;;;;5061239;28;20194;-91
2021/05/15 01:31:23;;;;;;;55.05;31.20;;;13.30;99.90;;;;;;5059272;28;20179;-89
2021/05/15 01:33:50;;;;;;;49.33;31.05;;;13.50;99.90;;;;;;5059742;28;20651;-90
2021/05/15 01:36:16;;;;;;;45.45;29.63;;;13.50;99.90;;;;;;5059713;28;20203;-90
2021/05/15 01:38:42;;;;;;;48.53;28.17;;;13.40;99.90;;;;;;5058718;28;20179;-90
2021/05/15 01:41:11;;;;;;;43.53;29.13;;;13.30;99.90;;;;;;5058376;28;20175;-90
2021/05/15 01:43:37;;;;;;;56.50;31.85;;;13.20;99.90;;;;;;5060464;28;20202;-90
2021/05/15 01:46:04;;;;;;;48.38;30.20;;;13.20;99.90;;;;;;5060531;28;20202;-90
2021/05/15 01:48:30;;;;;;;47.28;31.52;;;13.20;99.90;;;;;;5058168;28;20653;-90
2021/05/15 01:50:56;;;;;;;52.35;31.15;;;13.20;99.90;;;;;;5058007;28;20172;-90
2021/05/15 01:53:33;;;;;;;48.85;28.55;;;13.20;99.90;;;;;;5058549;28;20188;-90
2021/05/15 01:56:00;;;;;;;48.30;29.98;;;13.30;99.90;;;;;;5059930;28;20182;-89
2021/05/15 01:58:26;;;;;;;48.20;30.42;;;13.20;99.90;;;;;;5057929;28;20179;-90
2021/05/15 02:00:52;;;;;;;50.47;31.83;;;13.30;99.90;;;;;;5057509;28;20171;-89
2021/05/15 02:03:20;;;;;;;42.42;30.13;;;13.30;99.90;;;;;;5041526;28;20687;-91
2021/05/15 02:05:50;;;;;;;52.00;31.45;;;13.30;99.90;;;;;;5057756;28;20181;-89
2021/05/15 02:08:20;;;;;;;43.42;29.05;;;13.30;99.90;;;;;;5057850;28;20209;-89
2021/05/15 02:10:46;;;;;;;50.45;30.65;;;13.30;99.90;;;;;;5058945;28;20232;-90
2021/05/15 02:13:12;;;;;;;50.63;31.08;;;13.30;99.90;;;;;;5057018;28;20183;-89
2021/05/15 02:15:38;;;;;;;49.28;30.13;;;13.30;99.90;;;;;;5058034;28;20172;-90
2021/05/15 02:18:05;;;;;;;47.40;29.55;;;13.30;99.90;;;;;;5058560;28;20639;-89
2021/05/15 02:20:32;;;;;;;42.42;29.10;;;13.30;99.90;;;;;;5057740;28;20620;-89
2021/05/15 02:22:58;;;;;;;39.88;26.77;;;13.20;99.90;;;;;;5057989;28;20199;-90
2021/05/15 02:25:25;;;;;;;48.17;29.38;;;13.20;99.90;;;;;;5057391;28;20185;-90
2021/05/15 02:27:52;;;;;;;50.60;31.33;;;13.30;99.90;;;;;;5057117;28;20639;-90
2021/05/15 02:30:18;;;;;;;44.40;29.73;;;13.30;99.90;;;;;;5059211;28;20210;-89
2021/05/15 02:32:44;;;;;;;51.72;29.58;;;13.40;99.90;;;;;;5058379;28;20171;-90
2021/05/15 02:35:10;;;;;;;47.95;29.27;;;13.40;99.90;;;;;;5057330;28;20179;-90
2021/05/15 02:37:36;;;;;;;51.65;28.23;;;13.50;99.90;;;;;;5058379;28;20186;-90
2021/05/15 02:40:03;;;;;;;43.05;28.42;;;13.40;99.90;;;;;;5040676;28;20229;-89
2021/05/15 02:42:29;;;;;;;51.45;29.02;;;13.50;99.90;;;;;;5056569;28;20195;-89
2021/05/15 02:44:54;;;;;;;53.53;30.20;;;13.40;99.90;;;;;;5057429;28;20647;-90
2021/05/15 02:47:21;;;;;;;47.50;31.33;;;13.40;99.90;;;;;;5057580;28;20171;-90
2021/05/15 02:49:47;;;;;;;52.85;29.73;;;13.40;99.90;;;;;;5057288;28;20175;-89
2021/05/15 02:52:13;;;;;;;55.60;31.35;;;13.30;99.90;;;;;;5057414;28;20171;-90
2021/05/15 02:54:38;;;;;;;53.60;31.55;;;13.40;99.90;;;;;;5056781;28;20193;-90
2021/05/15 02:57:04;;;;;;;45.70;30.33;;;13.40;99.90;;;;;;5062903;28;20186;-89
2021/05/15 02:59:30;;;;;;;51.22;30.75;;;13.40;99.90;;;;;;5071879;28;20160;-89
2021/05/15 03:01:56;;;;;;;54.45;33.67;;;13.30;99.90;;;;;;5076586;28;20303;-89
2021/05/15 03:04:22;;;;;;;48.72;33.58;;;13.20;99.90;;;;;;5069561;28;20614;-89
2021/05/15 03:06:48;;;;;;;53.55;34.75;;;13.20;99.90;;;;;;5058495;28;20246;-90
2021/05/15 03:09:13;;;;;;;54.50;34.28;;;13.00;99.90;;;;;;5040569;28;20266;-90
2021/05/15 03:11:39;;;;;;;53.33;36.00;;;12.90;99.90;;;;;;5040286;28;20563;-88
2021/05/15 03:14:05;;;;;;;66.22;38.38;;;12.80;99.90;;;;;;5058429;28;20522;-89
2021/05/15 03:16:31;;;;;;;62.38;39.05;;;12.60;99.90;;;;;;5067904;28;20168;-89
2021/05/15 03:18:57;;;;;;;56.22;37.50;;;12.50;99.90;;;;;;5072663;28;20162;-88
2021/05/15 03:21:23;;;;;;;63.35;39.67;;;12.30;99.90;;;;;;5068384;28;20171;-89
2021/05/15 03:23:49;;;;;;;60.97;40.33;;;12.30;99.90;;;;;;5040580;28;20213;-88
2021/05/15 03:26:15;;;;;;;57.03;37.97;;;12.30;99.90;;;;;;5061816;28;20211;-88
2021/05/15 03:28:40;;;;;;;69.13;40.88;;;12.40;99.90;;;;;;5078849;28;20178;-89
2021/05/15 03:31:06;;;;;;;64.38;40.25;;;12.40;99.90;;;;;;5076698;28;20171;-89
2021/05/15 03:33:32;;;;;;;65.28;41.50;;;12.40;99.90;;;;;;5076352;28;20697;-90
2021/05/15 03:35:57;;;;;;;62.97;40.17;;;12.40;99.90;;;;;;5062628;28;20176;-89
2021/05/15 03:38:23;;;;;;;58.50;39.08;;;12.40;99.90;;;;;;5057281;28;20175;-88
2021/05/15 03:40:49;;;;;;;60.88;40.97;;;12.40;99.90;;;;;;5058445;28;20176;-88
2021/05/15 03:43:14;;;;;;;57.35;38.47;;;12.50;99.90;;;;;;5048651;28;20227;-90
2021/05/15 03:45:40;;;;;;;64.95;39.95;;;12.50;99.90;;;;;;5069247;28;20164;-90
2021/05/15 03:48:06;;;;;;;59.67;39.30;;;12.50;99.90;;;;;;5070135;28;20172;-89
2021/05/15 03:50:32;;;;;;;68.60;42.03;;;12.60;99.90;;;;;;5075421;28;20198;-90
2021/05/15 03:52:58;;;;;;;71.18;41.08;;;12.60;99.90;;;;;;5078939;28;20152;-90
2021/05/15 03:55:23;;;;;;;62.72;41.67;;;12.60;99.90;;;;;;5078617;28;20152;-90
2021/05/15 03:57:49;;;;;;;66.38;40.10;;;12.50;99.90;;;;;;5077584;28;20182;-89
2021/05/15 04:00:15;;;;;;;74.28;41.38;;;12.40;99.90;;;;;;5077930;28;20168;-90
2021/05/15 04:02:41;;;;;;;58.72;38.95;;;12.40;99.90;;;;;;5069761;28;20218;-90
2021/05/15 04:05:08;;;;;;;70.90;42.95;;;12.40;99.90;;;;;;5072333;28;20533;-90
2021/05/15 04:07:33;;;;;;;68.82;42.58;;;12.40;99.90;;;;;;5061957;28;20171;-90
2021/05/15 04:09:59;;;;;;;65.07;40.25;;;12.40;99.90;;;;;;5056249;28;20167;-89
2021/05/15 04:12:30;;;;;;;61.58;39.85;;;12.40;99.90;;;;;;5055853;28;20211;-89
2021/05/15 04:15:09;;;;;;;72.07;41.20;;;12.40;99.90;;;;;;5056539;28;20182;-90
2021/05/15 04:17:35;;;;;;;62.28;38.88;;;12.40;99.90;;;;;;5042197;28;20175;-90
2021/05/15 04:20:01;;;;;;;70.78;43.60;;;12.40;99.90;;;;;;5056920;28;20258;-90
2021/05/15 04:22:27;;;;;;;74.95;42.45;;;12.40;99.90;;;;;;5038994;28;20172;-90
2021/05/15 04:24:54;;;;;;;71.10;41.92;;;12.50;99.90;;;;;;5039325;28;20541;-90
2021/05/15 04:27:20;;;;;;;65.30;41.90;;;12.50;99.90;;;;;;5039884;28;20178;-90
2021/05/15 04:29:46;;;;;;;70.35;41.05;;;12.50;99.90;;;;;;5056267;28;20175;-89
2021/05/15 04:32:12;;;;;;;65.80;41.38;;;12.60;99.90;;;;;;5056302;28;20175;-89
2021/05/15 04:34:38;;;;;;;62.67;39.63;;;12.60;99.90;;;;;;5057418;28;20222;-91
2021/05/15 04:37:04;;;;;;;61.42;40.35;;;12.70;99.90;;;;;;5055610;28;20178;-90
2021/05/15 04:39:33;;;;;;;55.75;37.85;;;12.80;99.90;;;;;;5057074;28;20174;-90
2021/05/15 04:42:00;;;;;;;58.92;39.20;;;12.90;99.90;;;;;;5056426;28;20203;-90
2021/05/15 04:44:26;;;;;;;59.90;38.22;;;13.00;99.90;;;;;;5054462;28;20237;-89
2021/05/15 04:46:51;;;;;;;61.78;39.22;;;13.00;99.90;;;;;;5053213;28;20167;-90
2021/05/15 04:49:18;;;;;;;64.80;41.38;;;13.10;99.90;;;;;;5052982;28;20529;-89
2021/05/15 04:51:44;;;;;;;57.75;40.13;;;13.10;99.90;;;;;;5033357;28;20176;-90
2021/05/15 04:54:10;;;;;;;63.03;41.58;;;13.10;99.90;;;;;;5033247;28;20267;-89
2021/05/15 04:56:36;;;;;;;66.82;42.30;;;13.00;99.90;;;;;;5049756;28;20208;-89
2021/05/15 04:59:03;;;;;;;61.10;41.55;;;13.00;99.90;;;;;;5050042;28;20238;-91
2021/05/15 05:01:29;;;;;;;72.03;43.22;;;13.00;99.90;;;;;;5045320;28;20258;-89
2021/05/15 05:03:55;;;;;;;62.92;42.42;;;13.10;99.90;;;;;;5052832;28;20333;-90
2021/05/15 05:06:20;;;;;;;70.78;45.17;;;13.00;99.90;;;;;;5053057;28;20599;-89
2021/05/15 05:08:46;;;;;;;66.53;42.83;;;13.00;99.90;;;;;;5036610;28;20517;-90
2021/05/15 05:11:12;;;;;;;64.28;43.67;;;13.10;99.90;;;;;;5036563;28;20202;-90
2021/05/15 05:13:37;;;;;;;67.85;44.67;;;13.10;99.90;;;;;;5052712;28;20311;-90
2021/05/15 05:16:03;;;;;;;67.57;44.67;;;13.20;99.90;;;;;;5054326;28;20194;-90
2021/05/15 05:18:29;;;;;;;72.40;44.92;;;13.20;99.90;;;;;;5055195;28;20165;-90
2021/05/15 05:20:56;;;;;;;66.10;45.15;;;13.30;99.90;;;;;;5036518;28;20176;-90
2021/05/15 05:23:23;;;;;;;75.00;45.80;;;13.30;99.90;;;;;;5055035;28;20199;-90
2021/05/15 05:25:49;;;;;;;67.75;45.53;;;13.60;99.90;;;;;;5056901;28;20168;-90
2021/05/15 05:28:20;;;;;;;71.15;46.28;;;13.80;99.90;;;;;;5064567;28;20179;-90
2021/05/15 05:30:45;;;;;;;66.97;43.95;;;14.00;99.90;;;;;;5076253;28;20242;-90
2021/05/15 05:33:11;;;;;;;60.60;44.13;;;14.20;99.90;;;;;;5074769;28;20171;-91
2021/05/15 05:35:38;;;;;;;60.17;42.83;;;14.40;99.90;;;;;;5044226;28;20242;-90
2021/05/15 05:38:04;;;;;;;68.30;45.53;;;14.40;99.90;;;;;;5020723;28;20263;-90
2021/05/15 05:40:29;;;;;;;55.40;41.00;;;14.50;99.90;;;;;;5039988;28;20211;-90
2021/05/15 05:42:55;;;;;;;63.17;43.45;;;14.70;99.90;;;;;;5056473;28;20253;-89
2021/05/15 05:45:21;;;;;;;65.75;42.13;;;14.80;99.90;;;;;;5056859;28;20206;-91
2021/05/15 05:47:46;;;;;;;52.10;39.03;;;14.90;99.90;;;;;;5055379;28;20556;-89
2021/05/15 05:50:13;;;;;;;52.78;38.60;;;14.90;99.90;;;;;;5076312;28;20715;-89
2021/05/15 05:52:39;;;;;;;56.13;39.30;;;15.10;99.90;;;;;;5061673;28;20183;-89
2021/05/15 05:55:06;;;;;;;55.70;40.30;;;15.30;99.90;;;;;;5057127;28;20529;-89
2021/05/15 05:57:32;;;;;;;50.85;37.78;;;15.50;99.90;;;;;;5057129;28;20640;-90
2021/05/15 05:59:58;;;;;;;45.30;35.47;;;15.60;99.90;;;;;;5056440;28;20178;-90
2021/05/15 06:02:23;;;;;;;43.67;34.40;;;15.50;99.90;;;;;;5057028;28;20186;-90
2021/05/15 06:04:49;;;;;;;36.30;28.70;;;15.20;99.90;;;;;;5057229;28;20250;-88
2021/05/15 06:07:15;;;;;;;31.60;25.67;;;14.90;99.90;;;;;;5056034;28;20168;-89
2021/05/15 06:09:41;;;;;;;36.10;25.52;;;14.50;99.90;;;;;;5056377;28;20190;-90
2021/05/15 06:12:10;;;;;;;28.48;23.02;;;14.30;99.90;;;;;;5056460;28;20264;-89
2021/05/15 06:14:36;;;;;;;31.30;23.05;;;14.20;99.90;;;;;;5056226;28;20168;-91
2021/05/15 06:17:01;;;;;;;25.88;20.52;;;14.20;99.90;;;;;;5056111;28;20240;-90
2021/05/15 06:19:27;;;;;;;20.25;18.10;;;14.30;99.90;;;;;;5058745;28;20567;-89
2021/05/15 06:21:53;;;;;;;22.45;17.40;;;14.30;99.90;;;;;;5056913;28;20544;-90
2021/05/15 06:24:18;;;;;;;19.15;16.42;;;14.40;99.90;;;;;;5056695;28;20199;-89
2021/05/15 06:26:44;;;;;;;18.30;16.40;;;14.50;99.90;;;;;;5057362;28;20172;-90
2021/05/15 06:29:10;;;;;;;16.83;13.77;;;14.60;99.90;;;;;;5055350;28;20263;-89
2021/05/15 06:31:35;;;;;;;18.83;15.13;;;14.50;99.90;;;;;;5056036;28;20187;-90
2021/05/15 06:34:01;;;;;;;22.33;15.68;;;14.50;99.90;;;;;;5055665;28;20516;-90
2021/05/15 06:36:27;;;;;;;17.17;13.77;;;14.50;99.90;;;;;;5055493;28;20176;-90
2021/05/15 06:38:52;;;;;;;14.88;12.68;;;14.70;99.90;;;;;;5055405;28;20536;-89
2021/05/15 06:41:18;;;;;;;15.00;13.07;;;14.90;99.90;;;;;;5055211;28;20180;-88
2021/05/15 06:43:44;;;;;;;13.23;11.60;;;15.20;99.90;;;;;;5055228;28;20199;-90
2021/05/15 06:46:10;;;;;;;19.60;12.07;;;15.50;99.90;;;;;;5043148;28;20691;-87
2021/05/15 06:48:35;;;;;;;12.70;11.45;;;15.70;99.90;;;;;;5057402;28;20171;-88
2021/05/15 06:51:01;;;;;;;14.52;11.20;;;15.70;99.90;;;;;;5056308;28;20171;-90
2021/05/15 06:53:27;;;;;;;13.00;11.68;;;15.40;99.90;;;;;;5056076;28;20267;-89
2021/05/15 06:55:52;;;;;;;14.30;11.93;;;14.90;99.90;;;;;;5057430;28;20203;-91
2021/05/15 06:58:18;;;;;;;13.15;11.75;;;14.50;99.90;;;;;;5055385;28;20266;-89
2021/05/15 07:00:44;;;;;;;15.95;12.48;;;13.90;99.90;;;;;;5056453;28;20199;-90
2021/05/15 07:03:09;;;;;;;16.70;12.75;;;13.40;99.90;;;;;;5039274;28;20202;-91
2021/05/15 07:05:35;;;;;;;17.27;13.90;;;13.00;99.90;;;;;;5055316;28;20270;-91
2021/05/15 07:08:01;;;;;;;16.95;13.82;;;12.80;99.90;;;;;;5055145;28;20164;-93
2021/05/15 07:10:28;;;;;;;18.45;14.48;;;12.70;99.90;;;;;;5056452;28;20202;-90
2021/05/15 07:12:54;;;;;;;17.23;14.80;;;12.60;99.90;;;;;;5055476;28;20248;-91
2021/05/15 07:15:20;;;;;;;16.67;14.27;;;12.60;99.90;;;;;;5038830;28;20616;-93
2021/05/15 07:17:46;;;;;;;18.52;15.27;;;12.60;99.90;;;;;;5054319;28;20171;-93
2021/05/15 07:20:12;;;;;;;17.35;14.13;;;12.70;99.90;;;;;;5054759;28;20183;-91
2021/05/15 07:22:40;;;;;;;17.50;14.35;;;12.70;99.90;;;;;;5054514;28;20672;-94
2021/05/15 07:25:07;;;;;;;18.92;14.50;;;12.80;99.90;;;;;;5038196;28;20171;-92
2021/05/15 07:27:33;;;;;;;18.52;14.65;;;12.80;99.90;;;;;;5054486;28;20172;-92
2021/05/15 07:30:00;;;;;;;18.90;14.38;;;12.70;99.90;;;;;;5054541;28;20179;-91
2021/05/15 07:32:26;;;;;;;17.85;14.30;;;12.70;99.90;;;;;;5054397;28;20172;-93
2021/05/15 07:34:52;;;;;;;21.48;14.30;;;12.60;99.90;;;;;;5054981;28;20177;-93
2021/05/15 07:37:18;;;;;;;15.57;13.98;;;12.70;99.90;;;;;;5054802;28;20179;-92
2021/05/15 07:39:44;;;;;;;18.73;13.95;;;12.80;99.90;;;;;;5055511;28;20164;-92
2021/05/15 07:42:10;;;;;;;17.42;14.13;;;12.80;99.90;;;;;;5054357;28;20171;-92
2021/05/15 07:44:36;;;;;;;21.58;14.25;;;12.90;99.90;;;;;;5055885;28;20238;-92
2021/05/15 07:47:02;;;;;;;17.00;13.95;;;13.10;99.90;;;;;;5055410;28;20168;-93
2021/05/15 07:49:28;;;;;;;18.08;14.32;;;13.50;99.90;;;;;;5054423;28;20256;-92
2021/05/15 07:51:54;;;;;;;21.00;12.68;;;14.10;99.90;;;;;;5056042;28;20167;-93
2021/05/15 07:54:21;;;;;;;13.07;11.68;;;14.90;99.90;;;;;;5054918;28;20648;-91
2021/05/15 07:56:47;;;;;;;15.65;10.48;;;15.70;99.90;;;;;;5053868;28;20227;-91
2021/05/15 07:59:13;;;;;;;11.50;10.23;;;15.90;99.90;;;;;;5061039;28;20163;-91
2021/05/15 08:01:38;;;;;;;11.15;9.95;;;16.00;99.90;;;;;;5071143;28;20186;-90
2021/05/15 08:04:04;;;;;;;13.80;10.25;;;16.20;99.90;;;;;;5077090;28;20203;-88
2021/05/15 08:06:30;;;;;;;12.55;10.18;;;16.20;99.90;;;;;;5064943;28;20671;-91
2021/05/15 08:08:55;;;;;;;9.60;8.70;;;16.30;99.90;;;;;;5053713;28;20168;-90
2021/05/15 08:11:21;;;;;;;12.50;9.35;;;16.10;99.90;;;;;;5054674;28;20178;-89
2021/05/15 08:13:47;;;;;;;12.70;8.50;;;15.70;99.90;;;;;;5035784;28;20267;-91
2021/05/15 08:16:14;;;;;;;9.38;8.43;;;15.50;99.90;;;;;;5054732;28;20180;-90
2021/05/15 08:18:41;;;;;;;14.57;8.00;;;15.40;99.90;;;;;;5070263;28;20147;-89
2021/05/15 08:21:07;;;;;;;9.88;8.68;;;15.10;99.90;;;;;;5074768;28;20184;-87
2021/05/15 08:23:35;;;;;;;12.75;8.57;;;14.80;99.90;;;;;;5064044;28;20203;-84
2021/05/15 08:26:05;;;;;;;11.02;8.00;;;14.70;99.90;;;;;;5053544;28;20639;-86
2021/05/15 08:28:32;;;;;;;8.95;8.10;;;14.70;99.90;;;;;;5052440;28;20542;-86
2021/05/15 08:30:58;;;;;;;8.07;7.38;;;14.90;99.90;;;;;;5052565;28;20175;-86
2021/05/15 08:33:24;;;;;;;9.93;8.15;;;15.00;99.90;;;;;;5052805;28;20174;-87
2021/05/15 08:35:50;;;;;;;9.05;8.13;;;14.80;99.90;;;;;;5052379;28;20250;-86
2021/05/15 08:38:15;;;;;;;9.68;8.20;;;14.80;99.90;;;;;;5052709;28;20163;-87
2021/05/15 08:40:41;;;;;;;10.13;8.48;;;14.90;99.90;;;;;;5052831;28;20521;-89
2021/05/15 08:43:08;;;;;;;9.18;8.25;;;15.00;99.90;;;;;;5054501;28;20290;-92
2021/05/15 08:45:34;;;;;;;10.35;7.32;;;15.10;99.90;;;;;;5053190;28;20201;-90
2021/05/15 08:48:02;;;;;;;10.35;7.65;;;15.00;99.90;;;;;;5053203;28;20171;-92
2021/05/15 08:50:29;;;;;;;10.75;7.47;;;15.10;99.90;;;;;;5054005;28;20613;-92
2021/05/15 08:52:57;;;;;;;9.75;7.20;;;15.20;99.90;;;;;;5053628;28;20175;-91
2021/05/15 08:55:28;;;;;;;9.07;7.45;;;15.10;99.90;;;;;;5054319;28;20172;-90
2021/05/15 08:57:55;;;;;;;9.98;6.70;;;15.50;99.90;;;;;;5054357;28;20179;-90
2021/05/15 09:00:29;;;;;;;10.85;5.75;;;15.90;99.90;;;;;;5057966;28;20170;-90
2021/05/15 09:02:57;;;;;;;8.32;5.00;;;16.50;99.90;;;;;;5058198;28;20218;-91
2021/05/15 09:05:25;;;;;;;9.10;4.57;;;17.10;99.90;;;;;;5057210;28;20180;-92
2021/05/15 09:07:56;;;;;;;10.43;3.58;;;17.40;99.90;;;;;;5056814;28;20179;-91
2021/05/15 09:10:29;;;;;;;7.68;4.07;;;17.40;99.90;;;;;;5035998;28;20219;-92
2021/05/15 09:13:07;;;;;;;6.13;3.92;;;17.50;99.90;;;;;;5046962;28;20216;-90
2021/05/15 09:15:42;;;;;;;6.22;3.85;;;17.80;99.90;;;;;;5055977;28;20190;-90
2021/05/15 09:18:09;;;;;;;6.00;3.30;;;18.00;99.90;;;;;;5038450;28;20256;-82
2021/05/15 09:20:37;;;;;;;4.82;3.20;;;18.80;99.90;;;;;;5054398;28;20179;-82
2021/05/15 09:23:17;;;;;;;6.60;3.40;;;19.10;99.90;;;;;;5038046;28;20199;-81
2021/05/15 09:25:53;;;;;;;7.22;3.50;;;18.90;99.90;;;;;;5037668;28;20710;-82
2021/05/15 09:28:33;;;;;;;7.35;3.38;;;18.40;99.90;;;;;;5053960;28;20562;-81
2021/05/15 09:31:21;;;;;;;4.15;2.78;;;18.10;99.90;;;;;;5054194;28;20179;-82
2021/05/15 09:34:04;;;;;;;5.10;2.85;;;17.90;99.90;;;;;;5052846;28;20186;-82
2021/05/15 09:36:41;;;;;;;12.38;2.80;;;17.70;99.90;;;;;;5054002;28;20530;-82
2021/05/15 09:39:16;;;;;;;7.50;2.50;;;17.10;99.90;;;;;;5053857;28;20164;-82
2021/05/15 09:41:51;;;;;;;10.38;2.88;;;16.70;99.90;;;;;;5035560;28;20172;-83
2021/05/15 09:44:35;;;;;;;13.05;3.00;;;16.00;99.90;;;;;;5051826;28;20659;-82
2021/05/15 09:47:02;;;;;;;5.70;2.95;;;15.10;99.90;;;;;;5056271;28;20164;-82
2021/05/15 09:49:31;;;;;;;6.72;2.63;;;14.70;99.90;;;;;;5055676;28;20178;-91
2021/05/15 09:52:07;;;;;;;7.07;2.50;;;14.40;99.90;;;;;;5057036;28;20171;-91
2021/05/15 09:54:35;;;;;;;5.28;3.05;;;14.20;99.90;;;;;;5056203;28;20173;-90
2021/05/15 09:57:04;;;;;;;3.92;2.35;;;14.00;99.90;;;;;;5055886;28;20183;-91
2021/05/15 09:59:50;;;;;;;4.35;2.28;;;13.90;99.90;;;;;;5056195;28;20199;-90
2021/05/15 10:02:20;;;;;;;9.68;2.53;;;13.90;99.90;;;;;;5055234;28;20674;-91
2021/05/15 10:04:48;;;;;;;5.75;2.30;;;13.90;99.90;;;;;;5069973;28;20211;-90
2021/05/15 10:07:24;;;;;;;11.57;2.70;;;13.90;99.90;;;;;;5069187;28;20229;-91
2021/05/15 10:09:50;;;;;;;7.15;2.38;;;13.90;99.90;;;;;;5052720;28;20616;-91
2021/05/15 10:12:15;;;;;;;4.38;1.98;;;13.90;99.90;;;;;;5045910;28;20174;-91
2021/05/15 10:14:41;;;;;;;8.85;2.00;;;13.60;99.90;;;;;;5054169;28;20175;-90
2021/05/15 10:17:07;;;;;;;4.90;2.10;;;13.50;99.90;;;;;;5035946;28;20572;-92
2021/05/15 10:19:33;;;;;;;3.75;1.88;;;13.50;99.90;;;;;;5035630;28;20644;-81
2021/05/15 10:21:59;;;;;;;7.60;2.03;;;13.70;99.90;;;;;;5036621;28;20278;-81
2021/05/15 10:24:30;;;;;;;8.27;2.00;;;13.90;99.90;;;;;;5035829;28;20200;-81
2021/05/15 10:27:05;;;;;;;8.18;1.83;;;14.20;99.90;;;;;;5053356;28;20171;-81
2021/05/15 10:29:46;;;;;;;5.75;1.80;;;14.60;99.90;;;;;;5055730;28;20639;-82
2021/05/15 10:32:15;;;;;;;3.03;1.77;;;15.10;99.90;;;;;;5049168;28;20208;-81
2021/05/15 10:34:44;;;;;;;3.25;1.70;;;15.50;99.90;;;;;;5072394;28;20176;-81
2021/05/15 10:37:21;;;;;;;7.35;2.35;;;15.80;99.90;;;;;;5058974;28;20623;-81
2021/05/15 10:39:48;;;;;;;4.43;1.73;;;15.70;99.90;;;;;;5054812;28;20242;-82
2021/05/15 10:42:25;;;;;;;3.10;1.50;;;15.90;99.90;;;;;;5066982;28;20171;-82
2021/05/15 10:44:51;;;;;;;5.03;1.35;;;15.70;99.90;;;;;;5060998;28;20183;-82
2021/05/15 10:47:16;;;;;;;4.82;1.33;;;15.60;99.90;;;;;;5057591;28;20199;-89
2021/05/15 10:49:45;;;;;;;2.67;1.00;;;15.60;99.90;;;;;;5069508;28;20711;-88
2021/05/15 10:52:19;;;;;;;2.33;1.00;;;15.70;99.90;;;;;;5072716;28;20251;-82
2021/05/15 10:54:51;;;;;;;3.50;1.05;;;15.80;99.90;;;;;;5056419;28;20596;-81
2021/05/15 10:57:26;;;;;;;2.42;1.10;;;15.70;99.90;;;;;;5055360;28;20186;-84
2021/05/15 11:00:00;;;;;;;4.40;1.23;;;15.70;99.90;;;;;;5052982;28;20591;-83
2021/05/15 11:02:40;;;;;;;2.40;1.23;;;15.50;99.90;;;;;;5054819;28;20160;-83
2021/05/15 11:05:14;;;;;;;3.85;1.17;;;15.20;99.90;;;;;;5033332;28;20183;-85
2021/05/15 11:07:40;;;;;;;4.63;1.50;;;14.80;99.90;;;;;;5034741;28;20266;-83
2021/05/15 11:10:12;;;;;;;7.30;1.67;;;14.60;99.90;;;;;;5033156;28;20167;-83
2021/05/15 11:12:42;;;;;;;4.07;1.27;;;14.30;99.90;;;;;;5049936;28;20600;-82
2021/05/15 11:15:11;;;;;;;5.95;1.42;;;14.10;99.90;;;;;;5047043;28;20564;-82
2021/05/15 11:17:36;;;;;;;2.78;1.35;;;13.90;99.90;;;;;;5053674;28;20214;-90
2021/05/15 11:20:13;;;;;;;4.88;1.02;;;13.60;99.90;;;;;;5053493;28;20199;-90
2021/05/15 11:22:47;;;;;;;4.70;1.58;;;13.40;99.90;;;;;;5054442;28;20159;-90
2021/05/15 11:25:13;;;;;;;5.78;1.50;;;13.20;99.90;;;;;;5053929;28;20189;-91
2021/05/15 11:27:51;;;;;;;3.03;1.50;;;13.20;99.90;;;;;;5054165;28;20624;-90
2021/05/15 11:30:23;;;;;;;2.45;1.20;;;13.20;99.90;;;;;;5034100;28;20208;-89
2021/05/15 11:33:16;;;;;;;3.05;1.40;;;13.20;99.90;;;;;;5050666;28;20575;-90
2021/05/15 11:35:43;;;;;;;5.32;1.20;;;13.40;99.90;;;;;;5035538;28;20234;-91
2021/05/15 11:38:08;;;;;;;7.18;2.00;;;13.30;99.90;;;;;;5054006;28;20590;-91
2021/05/15 11:40:40;;;;;;;9.30;1.95;;;13.50;99.90;;;;;;5054456;28;20171;-90
2021/05/15 11:43:07;;;;;;;8.70;1.42;;;13.30;99.90;;;;;;5053756;28;20572;-89
2021/05/15 11:45:34;;;;;;;3.05;1.27;;;13.20;99.90;;;;;;5055786;28;20234;-90
2021/05/15 11:48:27;;;;;;;2.83;1.63;;;13.30;99.90;;;;;;5053145;28;20172;-91
2021/05/15 11:51:05;;;;;;;3.67;1.70;;;13.40;99.90;;;;;;5072691;28;20187;-90
2021/05/15 11:53:33;;;;;;;5.72;1.80;;;13.30;99.90;;;;;;5066920;28;20758;-88
2021/05/15 11:55:59;;;;;;;3.90;1.30;;;13.20;99.90;;;;;;5033755;28;20168;-89
2021/05/15 11:58:25;;;;;;;7.70;1.88;;;13.30;99.90;;;;;;5033894;28;20759;-89
2021/05/15 12:00:51;;;;;;;2.33;1.60;;;13.40;99.90;;;;;;5040121;28;20644;-92
2021/05/15 12:03:25;;;;;;;3.95;2.20;;;13.40;99.90;;;;;;5054046;28;20200;-91
2021/05/15 12:05:51;;;;;;;6.82;1.95;;;13.50;99.90;;;;;;5054475;28;20174;-91
2021/05/15 12:08:19;;;;;;;5.75;1.70;;;13.40;99.90;;;;;;5054442;28;20244;-91
2021/05/15 12:10:46;;;;;;;11.85;1.60;;;13.30;99.90;;;;;;5053502;28;20197;-92
2021/05/15 12:13:14;;;;;;;3.17;1.80;;;13.10;99.90;;;;;;5053242;28;20174;-92
2021/05/15 12:15:44;;;;;;;3.88;1.90;;;12.90;99.90;;;;;;5053475;28;20178;-89
2021/05/15 12:18:12;;;;;;;7.22;1.92;;;12.90;99.90;;;;;;5053428;28;20187;-92
2021/05/15 12:20:42;;;;;;;2.40;1.80;;;12.90;99.90;;;;;;5059184;28;20191;-94
2021/05/15 12:23:12;;;;;;;2.38;1.52;;;13.00;99.90;;;;;;5060305;28;20196;-91
2021/05/15 12:25:40;;;;;;;4.97;2.10;;;13.20;99.90;;;;;;5058978;28;20235;-92
2021/05/15 12:28:21;;;;;;;3.15;1.95;;;13.20;99.90;;;;;;5053076;28;20205;-93
2021/05/15 12:30:47;;;;;;;3.45;1.55;;;13.50;99.90;;;;;;5052577;28;20171;-91
2021/05/15 12:33:16;;;;;;;2.55;1.70;;;13.60;99.90;;;;;;5052538;28;20229;-92
2021/05/15 12:35:44;;;;;;;3.72;1.75;;;13.90;99.90;;;;;;5053238;28;20175;-93